createdAt,value
2023-03-29T00:01:35.203Z,2.08
2023-03-29T00:04:04.706Z,2.30
2023-03-29T00:06:33.276Z,2.00
2023-03-29T00:09:01.835Z,1.83
2023-03-29T00:11:28.586Z,2.50
2023-03-29T00:13:55.489Z,2.53
2023-03-29T00:16:22.524Z,3.15
2023-03-29T00:18:49.244Z,2.05
2023-03-29T00:21:17.299Z,2.30
2023-03-29T00:23:44.260Z,2.25
2023-03-29T00:26:11.793Z,2.60
2023-03-29T00:28:38.464Z,2.63
2023-03-29T00:31:11.134Z,2.30
2023-03-29T00:33:38.973Z,2.10
2023-03-29T00:36:07.527Z,2.00
2023-03-29T00:38:34.669Z,2.08
2023-03-29T00:41:01.764Z,2.00
2023-03-29T00:43:28.500Z,2.10
2023-03-29T00:45:55.371Z,2.45
2023-03-29T00:48:26.407Z,1.95
2023-03-29T00:51:01.758Z,2.15
2023-03-29T00:53:33.486Z,2.15
2023-03-29T00:56:06.394Z,2.30
2023-03-29T00:58:49.909Z,1.83
2023-03-29T01:03:54.407Z,2.05
2023-03-29T01:06:24.925Z,2.53
2023-03-29T01:08:55.336Z,1.80
2023-03-29T01:11:29.189Z,2.58
2023-03-29T01:13:58.042Z,1.88
2023-03-29T01:16:28.695Z,2.33
2023-03-29T01:18:58.390Z,2.00
2023-03-29T01:21:32.418Z,2.13
2023-03-29T01:24:07.163Z,1.83
2023-03-29T01:27:02.798Z,2.28
2023-03-29T01:29:47.855Z,2.22
2023-03-29T01:32:19.789Z,2.13
2023-03-29T01:34:58.755Z,2.50
2023-03-29T01:37:39.558Z,2.42
2023-03-29T01:40:06.675Z,2.10
2023-03-29T01:42:54.353Z,2.03
2023-03-29T01:45:20.998Z,2.13
2023-03-29T01:48:06.138Z,2.20
2023-03-29T01:51:04.559Z,2.00
2023-03-29T01:53:44.016Z,1.92
2023-03-29T01:56:14.658Z,1.73
2023-03-29T01:58:46.129Z,2.10
2023-03-29T02:01:17.783Z,2.30
2023-03-29T02:03:49.884Z,2.22
2023-03-29T02:06:20.720Z,1.70
2023-03-29T02:08:47.950Z,1.88
2023-03-29T02:11:14.667Z,2.10
2023-03-29T02:13:41.634Z,2.20
2023-03-29T02:16:12.266Z,2.03
2023-03-29T02:18:41.321Z,2.30
2023-03-29T02:21:10.147Z,2.10
2023-03-29T02:23:49.199Z,2.40
2023-03-29T02:26:16.157Z,2.30
2023-03-29T02:28:43.234Z,2.10
2023-03-29T02:31:29.493Z,2.40
2023-03-29T02:33:59.235Z,2.60
2023-03-29T02:36:38.291Z,2.53
2023-03-29T02:39:06.118Z,2.47
2023-03-29T02:41:33.921Z,2.15
2023-03-29T02:44:02.482Z,2.28
2023-03-29T02:46:29.162Z,2.33
2023-03-29T02:48:57.602Z,2.20
2023-03-29T02:51:29.153Z,1.95
2023-03-29T02:54:13.897Z,2.08
2023-03-29T02:56:46.198Z,2.38
2023-03-29T02:59:14.272Z,2.60
2023-03-29T03:01:44.902Z,2.55
2023-03-29T03:04:12.364Z,2.00
2023-03-29T03:06:39.218Z,2.03
2023-03-29T03:09:06.801Z,2.15
2023-03-29T03:11:34.143Z,2.45
2023-03-29T03:14:00.983Z,2.10
2023-03-29T03:16:28.114Z,2.20
2023-03-29T03:18:55.702Z,1.95
2023-03-29T03:21:22.969Z,2.15
2023-03-29T03:23:49.853Z,2.00
2023-03-29T03:26:18.224Z,2.30
2023-03-29T03:28:48.437Z,1.98
2023-03-29T03:31:15.093Z,2.05
2023-03-29T03:33:41.898Z,2.22
2023-03-29T03:36:10.294Z,1.90
2023-03-29T03:38:38.545Z,1.70
2023-03-29T03:41:07.266Z,1.60
2023-03-29T03:43:34.262Z,2.25
2023-03-29T03:46:01.405Z,1.77
2023-03-29T03:48:28.521Z,1.90
2023-03-29T03:50:58.404Z,2.38
2023-03-29T03:53:26.556Z,2.28
2023-03-29T03:55:55.996Z,2.28
2023-03-29T03:58:23.308Z,1.92
2023-03-29T04:00:50.971Z,1.60
2023-03-29T04:03:18.815Z,2.13
2023-03-29T04:05:46.794Z,1.80
2023-03-29T04:08:14.337Z,1.70
2023-03-29T04:10:41.218Z,1.80
2023-03-29T04:13:08.363Z,1.70
2023-03-29T04:15:38.662Z,1.70
2023-03-29T04:18:07.404Z,1.75
2023-03-29T04:20:34.682Z,1.30
2023-03-29T04:23:01.981Z,1.50
2023-03-29T04:25:29.056Z,1.50
2023-03-29T04:27:56.150Z,1.40
2023-03-29T04:30:22.799Z,1.70
2023-03-29T04:32:49.539Z,1.45
2023-03-29T04:35:16.621Z,1.40
2023-03-29T04:37:43.317Z,1.75
2023-03-29T04:40:14.241Z,1.40
2023-03-29T04:42:45.962Z,1.50
2023-03-29T04:45:22.584Z,1.60
2023-03-29T04:47:49.640Z,1.65
2023-03-29T04:50:16.499Z,1.70
2023-03-29T04:52:45.381Z,1.48
2023-03-29T04:55:12.518Z,1.48
2023-03-29T04:57:39.181Z,1.27
2023-03-29T05:00:14.313Z,1.33
2023-03-29T05:02:44.970Z,1.48
2023-03-29T05:05:12.307Z,1.25
2023-03-29T05:07:39.542Z,1.40
2023-03-29T05:10:07.179Z,1.52
2023-03-29T05:12:33.872Z,1.50
2023-03-29T05:15:00.556Z,1.20
2023-03-29T05:17:27.582Z,1.38
2023-03-29T05:19:54.839Z,1.30
2023-03-29T05:22:21.818Z,1.40
2023-03-29T05:24:48.654Z,1.13
2023-03-29T05:27:15.320Z,1.00
2023-03-29T05:29:41.903Z,1.50
2023-03-29T05:32:08.526Z,1.40
2023-03-29T05:34:35.363Z,1.30
2023-03-29T05:37:02.318Z,1.10
2023-03-29T05:39:29.151Z,1.10
2023-03-29T05:41:55.928Z,1.50
2023-03-29T05:44:22.594Z,1.20
2023-03-29T05:46:49.164Z,1.60
2023-03-29T05:49:16.540Z,1.35
2023-03-29T05:51:45.688Z,1.40
2023-03-29T05:54:12.475Z,1.55
2023-03-29T05:56:39.189Z,1.50
2023-03-29T05:59:05.821Z,2.40
2023-03-29T06:01:32.450Z,1.95
2023-03-29T06:03:59.124Z,1.90
2023-03-29T06:06:25.734Z,2.08
2023-03-29T06:08:52.428Z,3.60
2023-03-29T06:11:19.213Z,2.40
2023-03-29T06:13:45.968Z,3.85
2023-03-29T06:16:13.536Z,3.83
2023-03-29T06:18:41.106Z,5.57
2023-03-29T06:21:09.290Z,5.78
2023-03-29T06:23:36.961Z,4.78
2023-03-29T06:26:05.724Z,4.28
2023-03-29T06:28:32.359Z,3.35
2023-03-29T06:31:03.311Z,2.90
2023-03-29T06:33:32.422Z,2.53
2023-03-29T06:35:59.110Z,2.40
2023-03-29T06:38:28.600Z,2.45
2023-03-29T06:41:11.245Z,2.17
2023-03-29T06:43:38.144Z,2.15
2023-03-29T06:46:08.779Z,2.83
2023-03-29T06:48:35.565Z,3.42
2023-03-29T06:51:02.402Z,2.75
2023-03-29T06:53:29.274Z,2.90
2023-03-29T06:55:56.409Z,4.70
2023-03-29T06:58:23.051Z,3.10
2023-03-29T07:00:49.723Z,2.95
2023-03-29T07:03:20.651Z,4.32
2023-03-29T07:05:47.945Z,3.42
2023-03-29T07:08:16.630Z,2.65
2023-03-29T07:10:47.562Z,3.45
2023-03-29T07:13:15.716Z,4.40
2023-03-29T07:15:43.803Z,3.17
2023-03-29T07:18:12.566Z,3.10
2023-03-29T07:20:39.312Z,3.50
2023-03-29T07:23:07.826Z,6.43
2023-03-29T07:25:34.658Z,5.03
2023-03-29T07:28:01.565Z,2.75
2023-03-29T07:30:32.053Z,3.38
2023-03-29T07:32:59.512Z,3.47
2023-03-29T07:35:27.135Z,3.72
2023-03-29T07:37:55.767Z,3.83
2023-03-29T07:40:23.959Z,3.90
2023-03-29T07:42:54.267Z,3.22
2023-03-29T07:45:26.447Z,3.30
2023-03-29T07:47:58.528Z,2.90
2023-03-29T07:50:26.507Z,3.00
2023-03-29T07:52:53.785Z,2.80
2023-03-29T07:55:20.701Z,2.80
2023-03-29T07:57:49.122Z,2.50
2023-03-29T08:00:16.847Z,3.88
2023-03-29T08:02:45.478Z,2.65
2023-03-29T08:05:13.900Z,3.80
2023-03-29T08:07:42.453Z,3.47
2023-03-29T08:10:17.530Z,2.85
2023-03-29T08:12:45.804Z,3.70
2023-03-29T08:15:13.314Z,3.05
2023-03-29T08:17:41.321Z,3.00
2023-03-29T08:20:11.041Z,3.28
2023-03-29T08:22:38.240Z,3.10
2023-03-29T08:25:06.945Z,2.63
2023-03-29T08:27:34.020Z,2.78
2023-03-29T08:30:01.026Z,2.85
2023-03-29T08:32:27.731Z,3.58
2023-03-29T08:34:54.360Z,3.53
2023-03-29T08:37:21.079Z,4.35
2023-03-29T08:39:48.627Z,3.33
2023-03-29T08:42:24.678Z,2.67
2023-03-29T08:45:13.026Z,3.08
2023-03-29T08:48:01.086Z,2.83
2023-03-29T08:50:35.434Z,2.75
2023-03-29T08:53:16.089Z,2.90
2023-03-29T08:55:45.318Z,2.85
2023-03-29T08:58:26.235Z,2.83
2023-03-29T09:00:59.259Z,2.92
2023-03-29T09:03:32.083Z,2.88
2023-03-29T09:06:04.383Z,3.10
2023-03-29T09:08:31.165Z,3.03
2023-03-29T09:11:00.709Z,3.25
2023-03-29T09:13:39.724Z,3.95
2023-03-29T09:16:26.468Z,3.90
2023-03-29T09:19:31.525Z,3.33
2023-03-29T09:22:12.910Z,4.03
2023-03-29T09:25:21.381Z,3.60
2023-03-29T09:27:50.155Z,3.88
2023-03-29T09:30:25.835Z,4.18
2023-03-29T09:33:00.875Z,3.70
2023-03-29T09:35:41.200Z,3.30
2023-03-29T09:38:13.395Z,3.15
2023-03-29T09:40:46.617Z,3.95
2023-03-29T09:45:43.799Z,3.10
2023-03-29T09:48:14.007Z,2.58
2023-03-29T09:50:43.485Z,3.55
2023-03-29T09:53:10.475Z,2.95
2023-03-29T09:55:39.666Z,2.88
2023-03-29T09:58:18.808Z,2.35
2023-03-29T10:00:46.795Z,3.10
2023-03-29T10:03:28.465Z,3.38
2023-03-29T10:05:58.848Z,2.90
2023-03-29T10:08:27.893Z,2.65
2023-03-29T10:10:57.830Z,3.33
2023-03-29T10:13:33.056Z,2.95
2023-03-29T10:16:17.166Z,3.00
2023-03-29T10:18:44.217Z,3.70
2023-03-29T10:21:15.549Z,2.90
2023-03-29T10:23:43.043Z,2.60
2023-03-29T10:26:27.945Z,2.80
2023-03-29T10:28:57.362Z,3.38
2023-03-29T10:31:25.307Z,3.10
2023-03-29T10:33:57.504Z,2.92
2023-03-29T10:36:26.968Z,2.80
2023-03-29T10:38:56.727Z,3.30
2023-03-29T10:41:24.294Z,2.28
2023-03-29T10:43:51.767Z,2.53
2023-03-29T10:46:41.633Z,2.30
2023-03-29T10:49:18.855Z,1.75
2023-03-29T10:51:47.253Z,1.85
2023-03-29T10:54:15.908Z,1.40
2023-03-29T10:57:03.343Z,1.90
2023-03-29T11:00:13.894Z,1.80
2023-03-29T11:03:21.385Z,1.50
2023-03-29T11:05:57.348Z,1.67
2023-03-29T11:08:59.104Z,1.45
2023-03-29T11:11:35.011Z,1.50
2023-03-29T11:14:14.004Z,1.77
2023-03-29T11:17:17.367Z,1.30
2023-03-29T11:19:57.601Z,1.40
2023-03-29T11:22:47.874Z,1.38
2023-03-29T11:25:32.196Z,1.38
2023-03-29T11:28:13.962Z,1.30
2023-03-29T11:30:46.071Z,1.42
2023-03-29T11:33:41.947Z,1.40
2023-03-29T11:36:25.742Z,1.27
2023-03-29T11:39:12.022Z,1.30
2023-03-29T11:41:43.412Z,1.48
2023-03-29T11:44:32.297Z,1.00
2023-03-29T11:47:14.017Z,1.23
2023-03-29T11:49:56.243Z,1.10
2023-03-29T11:52:46.575Z,1.40
2023-03-29T11:55:23.647Z,1.40
2023-03-29T11:58:02.431Z,1.50
2023-03-29T12:00:35.310Z,1.17
2023-03-29T12:03:32.836Z,1.73
2023-03-29T12:06:07.820Z,1.42
2023-03-29T12:08:55.248Z,1.40
2023-03-29T12:11:24.907Z,1.60
2023-03-29T12:14:02.497Z,1.25
2023-03-29T12:16:44.814Z,1.40
2023-03-29T12:19:20.368Z,1.50
2023-03-29T12:21:48.606Z,1.35
2023-03-29T12:24:17.576Z,1.40
2023-03-29T12:26:47.115Z,1.15
2023-03-29T12:29:34.968Z,1.20
2023-03-29T12:32:14.030Z,1.17
2023-03-29T12:35:27.730Z,1.50
2023-03-29T12:38:12.734Z,1.20
2023-03-29T12:40:45.774Z,1.02
2023-03-29T12:43:39.499Z,1.35
2023-03-29T12:46:16.337Z,1.00
2023-03-29T12:48:45.727Z,1.10
2023-03-29T12:51:23.529Z,1.48
2023-03-29T12:53:55.738Z,1.30
2023-03-29T12:56:36.320Z,1.15
2023-03-29T12:59:10.798Z,1.30
2023-03-29T13:01:41.423Z,1.40
2023-03-29T13:04:18.924Z,1.40
2023-03-29T13:06:48.302Z,1.70
2023-03-29T13:09:24.597Z,1.20
2023-03-29T13:11:58.555Z,1.30
2023-03-29T13:14:30.287Z,1.50
2023-03-29T13:17:18.090Z,1.40
2023-03-29T13:20:09.405Z,1.23
2023-03-29T13:22:36.062Z,1.40
2023-03-29T13:25:24.484Z,1.52
2023-03-29T13:28:10.673Z,1.20
2023-03-29T13:30:57.740Z,1.40
2023-03-29T13:33:38.139Z,1.60
2023-03-29T13:36:26.266Z,1.02
2023-03-29T13:38:55.366Z,1.50
2023-03-29T13:41:40.323Z,1.30
2023-03-29T13:44:21.922Z,1.10
2023-03-29T13:46:50.710Z,1.35
2023-03-29T13:49:21.291Z,1.40
2023-03-29T13:52:03.077Z,1.70
2023-03-29T13:55:28.988Z,1.38
2023-03-29T13:58:03.981Z,1.40
2023-03-29T14:00:42.018Z,1.42
2023-03-29T14:03:14.521Z,1.40
2023-03-29T14:05:56.357Z,1.25
2023-03-29T14:08:36.781Z,1.38
2023-03-29T14:11:06.994Z,1.27
2023-03-29T14:13:34.389Z,1.23
2023-03-29T14:16:10.387Z,1.50
2023-03-29T14:18:39.901Z,1.55
2023-03-29T14:21:07.227Z,1.30
2023-03-29T14:23:36.857Z,1.38
2023-03-29T14:26:10.659Z,1.30
2023-03-29T14:28:37.650Z,1.27
2023-03-29T14:31:04.463Z,1.50
2023-03-29T14:33:38.142Z,1.88
2023-03-29T14:36:05.872Z,1.50
2023-03-29T14:38:32.900Z,1.33
2023-03-29T14:41:00.930Z,1.23
2023-03-29T14:43:31.071Z,1.33
2023-03-29T14:46:01.595Z,1.55
2023-03-29T14:48:28.935Z,0.95
2023-03-29T14:50:55.808Z,1.10
2023-03-29T14:53:24.420Z,1.60
2023-03-29T14:55:53.115Z,1.30
2023-03-29T14:58:21.496Z,1.30
2023-03-29T15:00:50.999Z,1.20
2023-03-29T15:03:19.529Z,1.25
2023-03-29T15:05:54.216Z,1.42
2023-03-29T15:08:42.698Z,1.38
2023-03-29T15:11:26.586Z,1.30
2023-03-29T15:14:03.588Z,1.10
2023-03-29T15:16:30.765Z,1.63
2023-03-29T15:18:58.473Z,1.50
2023-03-29T15:21:31.965Z,1.10
2023-03-29T15:24:00.714Z,1.15
2023-03-29T15:26:38.331Z,1.45
2023-03-29T15:29:23.347Z,1.20
2023-03-29T15:31:59.113Z,1.50
2023-03-29T15:34:30.550Z,1.20
2023-03-29T15:36:57.946Z,1.88
2023-03-29T15:39:27.616Z,1.48
2023-03-29T15:41:56.842Z,1.90
2023-03-29T15:44:29.395Z,1.70
2023-03-29T15:46:57.787Z,1.38
2023-03-29T15:49:25.131Z,1.48
2023-03-29T15:51:54.063Z,1.52
2023-03-29T15:54:24.846Z,1.65
2023-03-29T15:57:01.538Z,1.52
2023-03-29T15:59:28.317Z,1.67
2023-03-29T16:01:55.302Z,1.58
2023-03-29T16:04:22.628Z,1.63
2023-03-29T16:06:52.817Z,1.70
2023-03-29T16:09:21.454Z,1.80
2023-03-29T16:11:49.161Z,2.10
2023-03-29T16:14:27.315Z,1.95
2023-03-29T16:17:00.780Z,1.75
2023-03-29T16:19:29.675Z,1.70
2023-03-29T16:21:57.027Z,1.30
2023-03-29T16:24:26.254Z,1.30
2023-03-29T16:26:55.709Z,1.55
2023-03-29T16:29:23.351Z,1.30
2023-03-29T16:31:50.516Z,1.27
2023-03-29T16:34:18.821Z,1.10
2023-03-29T16:36:49.726Z,1.33
2023-03-29T16:39:17.423Z,1.20
2023-03-29T16:41:46.896Z,1.20
2023-03-29T16:44:16.565Z,1.50
2023-03-29T16:46:43.567Z,1.60
2023-03-29T16:49:18.142Z,1.90
2023-03-29T16:51:46.774Z,1.42
2023-03-29T16:54:14.452Z,1.70
2023-03-29T16:56:41.286Z,1.50
2023-03-29T16:59:09.137Z,1.85
2023-03-29T17:01:36.513Z,1.38
2023-03-29T17:04:04.150Z,1.20
2023-03-29T17:06:33.110Z,1.10
2023-03-29T17:09:00.752Z,1.30
2023-03-29T17:11:29.012Z,1.17
2023-03-29T17:13:56.208Z,1.55
2023-03-29T17:16:23.271Z,1.73
2023-03-29T17:18:49.978Z,1.55
2023-03-29T17:21:16.863Z,1.45
2023-03-29T17:23:43.525Z,1.90
2023-03-29T17:26:10.145Z,1.30
2023-03-29T17:28:37.167Z,3.38
2023-03-29T17:31:07.104Z,1.20
2023-03-29T17:33:34.285Z,3.80
2023-03-29T17:38:29.668Z,1.33
2023-03-29T17:40:56.616Z,1.30
2023-03-29T17:43:23.398Z,1.40
2023-03-29T17:45:54.051Z,1.70
2023-03-29T17:48:21.473Z,1.25
2023-03-29T17:50:48.054Z,1.58
2023-03-29T17:53:14.678Z,1.48
2023-03-29T17:55:41.581Z,1.70
2023-03-29T17:58:09.368Z,1.70
2023-03-29T18:00:36.065Z,2.00
2023-03-29T18:03:02.821Z,1.73
2023-03-29T18:05:29.466Z,2.47
2023-03-29T18:07:56.556Z,1.48
2023-03-29T18:10:23.388Z,9.82
2023-03-29T18:12:50.194Z,2.20
2023-03-29T18:15:16.939Z,1.40
2023-03-29T18:17:43.597Z,1.15
2023-03-29T18:20:11.922Z,2.75
2023-03-29T18:22:41.371Z,1.38
2023-03-29T18:25:09.675Z,1.73
2023-03-29T18:27:38.203Z,1.52
2023-03-29T18:30:06.735Z,1.60
2023-03-29T18:32:33.729Z,390.98
2023-03-29T18:35:02.351Z,1.60
2023-03-29T18:37:29.111Z,1.42
2023-03-29T18:39:55.710Z,1.50
2023-03-29T18:42:22.372Z,1.40
2023-03-29T18:44:49.137Z,1.75
2023-03-29T18:47:15.797Z,1.92
2023-03-29T18:49:43.215Z,1.50
2023-03-29T18:52:10.139Z,1.70
2023-03-29T18:54:36.894Z,1.50
2023-03-29T18:57:03.705Z,2.05
2023-03-29T18:59:30.345Z,1.50
2023-03-29T19:01:57.130Z,1.27
2023-03-29T19:04:26.436Z,1.60
2023-03-29T19:06:54.100Z,1.33
2023-03-29T19:09:20.872Z,391.85
2023-03-29T19:11:48.106Z,378.77
2023-03-29T19:14:15.262Z,326.13
2023-03-29T19:16:42.851Z,1.70
2023-03-29T19:19:10.773Z,1.60
2023-03-29T19:21:38.571Z,386.10
2023-03-29T19:24:07.764Z,400.05
2023-03-29T19:26:34.670Z,355.20
2023-03-29T19:29:01.628Z,360.85
2023-03-29T19:31:28.512Z,267.37
2023-03-29T19:33:55.414Z,2.00
2023-03-29T19:36:22.306Z,1.70
2023-03-29T19:38:48.932Z,1.55
2023-03-29T19:41:15.966Z,1.80
2023-03-29T19:43:42.638Z,1.80
2023-03-29T19:46:11.050Z,1.38
2023-03-29T19:48:39.771Z,1.80
2023-03-29T19:51:06.993Z,2.30
2023-03-29T19:53:37.170Z,2.28
2023-03-29T19:56:07.599Z,1.70
2023-03-29T19:58:34.377Z,1.90
2023-03-29T20:01:01.279Z,1.95
2023-03-29T20:03:28.510Z,1.98
2023-03-29T20:05:56.604Z,3.03
2023-03-29T20:08:24.884Z,1.52
2023-03-29T20:11:11.559Z,4.95
2023-03-29T20:13:41.089Z,1.88
2023-03-29T20:16:13.762Z,2.60
2023-03-29T20:18:40.605Z,1.80
2023-03-29T20:21:08.779Z,1.48
2023-03-29T20:23:36.441Z,1.35
2023-03-29T20:26:03.346Z,1.50
2023-03-29T20:28:30.003Z,1.58
2023-03-29T20:30:56.694Z,1.85
2023-03-29T20:33:23.804Z,1.50
2023-03-29T20:35:50.534Z,1.70
2023-03-29T20:38:17.171Z,1.52
2023-03-29T20:40:44.929Z,1.52
2023-03-29T20:43:13.551Z,1.60
2023-03-29T20:45:52.719Z,1.75
2023-03-29T20:48:24.835Z,1.30
2023-03-29T20:50:51.841Z,1.70
2023-03-29T20:53:20.675Z,1.40
2023-03-29T20:55:47.863Z,1.50
2023-03-29T20:58:16.012Z,1.55
2023-03-29T21:00:43.603Z,1.90
2023-03-29T21:03:11.090Z,1.40
2023-03-29T21:05:38.818Z,1.70
2023-03-29T21:08:06.070Z,1.80
2023-03-29T21:10:32.854Z,1.77
2023-03-29T21:13:00.275Z,1.38
2023-03-29T21:15:28.700Z,1.70
2023-03-29T21:17:55.429Z,1.70
2023-03-29T21:20:22.174Z,1.70
2023-03-29T21:22:48.773Z,1.70
2023-03-29T21:25:15.966Z,1.90
2023-03-29T21:27:42.826Z,1.80
2023-03-29T21:30:10.864Z,1.40
2023-03-29T21:32:37.788Z,1.67
2023-03-29T21:35:04.780Z,2.50
2023-03-29T21:37:31.398Z,2.10
2023-03-29T21:39:58.017Z,2.33
2023-03-29T21:42:24.835Z,2.33
2023-03-29T21:44:51.431Z,2.53
2023-03-29T21:47:18.075Z,2.22
2023-03-29T21:49:44.650Z,1.98
2023-03-29T21:52:11.265Z,1.80
2023-03-29T21:54:37.914Z,1.60
2023-03-29T21:57:04.582Z,1.40
2023-03-29T21:59:31.255Z,1.60
2023-03-29T22:01:57.980Z,1.50
2023-03-29T22:04:35.853Z,2.05
2023-03-29T22:07:04.778Z,1.50
2023-03-29T22:09:33.383Z,1.60
2023-03-29T22:12:01.530Z,1.80
2023-03-29T22:14:31.247Z,1.70
2023-03-29T22:16:57.899Z,2.40
2023-03-29T22:19:24.538Z,2.20
2023-03-29T22:21:51.509Z,1.73
2023-03-29T22:24:19.046Z,2.15
2023-03-29T22:26:45.946Z,1.73
2023-03-29T22:29:12.519Z,2.25
2023-03-29T22:31:39.522Z,1.80
2023-03-29T22:34:06.701Z,1.70
2023-03-29T22:36:36.123Z,1.60
2023-03-29T22:39:03.786Z,2.00
2023-03-29T22:41:30.906Z,2.05
2023-03-29T22:43:58.930Z,1.52
2023-03-29T22:46:26.447Z,1.70
2023-03-29T22:48:53.354Z,2.38
2023-03-29T22:51:20.825Z,1.60
2023-03-29T22:53:47.759Z,1.88
2023-03-29T22:56:16.365Z,1.58
2023-03-29T22:58:43.042Z,1.95
2023-03-29T23:01:10.156Z,1.40
2023-03-29T23:03:37.095Z,1.70
2023-03-29T23:06:04.250Z,2.03
2023-03-29T23:08:32.697Z,1.75
2023-03-29T23:10:59.764Z,2.58
2023-03-29T23:13:29.094Z,2.42
2023-03-29T23:16:00.330Z,2.65
2023-03-29T23:18:29.555Z,2.00
2023-03-29T23:20:58.960Z,2.28
2023-03-29T23:23:27.064Z,1.92
2023-03-29T23:25:55.724Z,2.05
2023-03-29T23:28:24.970Z,1.60
2023-03-29T23:30:55.582Z,1.80
2023-03-29T23:33:22.550Z,2.15
2023-03-29T23:35:49.191Z,3.20
2023-03-29T23:38:15.844Z,3.17
2023-03-29T23:40:42.501Z,3.35
2023-03-29T23:43:09.153Z,2.67
2023-03-29T23:45:36.279Z,3.38
2023-03-29T23:48:03.807Z,2.70
2023-03-29T23:50:30.474Z,2.42
2023-03-29T23:52:58.345Z,2.20
2023-03-29T23:55:25.082Z,1.80
2023-03-29T23:57:51.804Z,2.00
